sensor_id;sensor_type;location;lat;lon;timestamp;P1;durP1;ratioP1;P2;durP2;ratioP2
11135;SDS011;5622;50.840;4.948;2022-10-01T00:00:04;6.47;;;4.70;;
11135;SDS011;5622;50.840;4.948;2022-10-01T00:02:36;5.93;;;4.63;;
11135;SDS011;5622;50.840;4.948;2022-10-01T00:05:04;5.63;;;4.60;;
11135;SDS011;5622;50.840;4.948;2022-10-01T00:07:36;6.53;;;4.80;;
11135;SDS011;5622;50.840;4.948;2022-10-01T00:10:04;6.70;;;4.63;;
11135;SDS011;5622;50.840;4.948;2022-10-01T00:12:31;6.67;;;4.43;;
11135;SDS011;5622;50.840;4.948;2022-10-01T00:14:58;6.47;;;5.30;;
11135;SDS011;5622;50.840;4.948;2022-10-01T00:17:26;6.97;;;5.03;;
11135;SDS011;5622;50.840;4.948;2022-10-01T00:19:55;5.77;;;4.73;;
11135;SDS011;5622;50.840;4.948;2022-10-01T00:22:22;6.60;;;4.93;;
11135;SDS011;5622;50.840;4.948;2022-10-01T00:24:49;6.13;;;4.27;;
11135;SDS011;5622;50.840;4.948;2022-10-01T00:27:16;6.80;;;4.70;;
11135;SDS011;5622;50.840;4.948;2022-10-01T00:29:43;5.50;;;4.97;;
11135;SDS011;5622;50.840;4.948;2022-10-01T00:32:10;8.23;;;5.17;;
11135;SDS011;5622;50.840;4.948;2022-10-01T00:34:37;5.67;;;4.90;;
11135;SDS011;5622;50.840;4.948;2022-10-01T00:37:06;7.77;;;5.20;;
11135;SDS011;5622;50.840;4.948;2022-10-01T00:39:34;4.83;;;4.43;;
11135;SDS011;5622;50.840;4.948;2022-10-01T00:42:01;10.73;;;4.60;;
11135;SDS011;5622;50.840;4.948;2022-10-01T00:44:31;7.47;;;5.30;;
11135;SDS011;5622;50.840;4.948;2022-10-01T00:47:02;6.50;;;4.63;;
11135;SDS011;5622;50.840;4.948;2022-10-01T00:49:34;4.20;;;3.80;;
11135;SDS011;5622;50.840;4.948;2022-10-01T00:52:05;7.57;;;4.10;;
11135;SDS011;5622;50.840;4.948;2022-10-01T00:54:38;6.33;;;4.50;;
11135;SDS011;5622;50.840;4.948;2022-10-01T00:57:09;4.23;;;3.83;;
11135;SDS011;5622;50.840;4.948;2022-10-01T00:59:38;4.83;;;4.30;;
11135;SDS011;5622;50.840;4.948;2022-10-01T01:02:05;5.27;;;3.70;;
11135;SDS011;5622;50.840;4.948;2022-10-01T01:04:32;9.87;;;3.80;;
11135;SDS011;5622;50.840;4.948;2022-10-01T01:07:00;4.87;;;3.73;;
11135;SDS011;5622;50.840;4.948;2022-10-01T01:09:31;4.50;;;3.40;;
11135;SDS011;5622;50.840;4.948;2022-10-01T01:12:03;3.70;;;3.40;;
11135;SDS011;5622;50.840;4.948;2022-10-01T01:14:38;3.57;;;3.00;;
11135;SDS011;5622;50.840;4.948;2022-10-01T01:17:11;5.07;;;3.10;;
11135;SDS011;5622;50.840;4.948;2022-10-01T01:19:49;3.47;;;3.03;;
11135;SDS011;5622;50.840;4.948;2022-10-01T01:22:32;4.43;;;2.90;;
11135;SDS011;5622;50.840;4.948;2022-10-01T01:25:04;3.37;;;2.53;;
11135;SDS011;5622;50.840;4.948;2022-10-01T01:27:36;4.60;;;2.80;;
11135;SDS011;5622;50.840;4.948;2022-10-01T01:30:09;3.40;;;2.90;;
11135;SDS011;5622;50.840;4.948;2022-10-01T01:32:43;3.27;;;2.97;;
11135;SDS011;5622;50.840;4.948;2022-10-01T01:35:19;3.07;;;2.70;;
11135;SDS011;5622;50.840;4.948;2022-10-01T01:37:51;8.97;;;2.93;;
11135;SDS011;5622;50.840;4.948;2022-10-01T01:40:22;3.57;;;2.40;;
11135;SDS011;5622;50.840;4.948;2022-10-01T01:42:51;3.07;;;2.37;;
11135;SDS011;5622;50.840;4.948;2022-10-01T01:45:22;2.60;;;2.40;;
11135;SDS011;5622;50.840;4.948;2022-10-01T01:47:54;2.97;;;2.23;;
11135;SDS011;5622;50.840;4.948;2022-10-01T01:50:24;2.10;;;1.90;;
11135;SDS011;5622;50.840;4.948;2022-10-01T01:52:55;2.83;;;2.20;;
11135;SDS011;5622;50.840;4.948;2022-10-01T01:55:24;2.73;;;2.13;;
11135;SDS011;5622;50.840;4.948;2022-10-01T01:57:54;2.40;;;1.80;;
11135;SDS011;5622;50.840;4.948;2022-10-01T02:00:23;2.20;;;1.93;;
11135;SDS011;5622;50.840;4.948;2022-10-01T02:02:51;3.03;;;2.07;;
11135;SDS011;5622;50.840;4.948;2022-10-01T02:05:24;2.50;;;1.70;;
11135;SDS011;5622;50.840;4.948;2022-10-01T02:11:02;1.70;;;1.53;;
11135;SDS011;5622;50.840;4.948;2022-10-01T02:13:41;1.53;;;1.43;;
11135;SDS011;5622;50.840;4.948;2022-10-01T02:16:20;1.70;;;1.60;;
11135;SDS011;5622;50.840;4.948;2022-10-01T02:18:52;3.20;;;1.60;;
11135;SDS011;5622;50.840;4.948;2022-10-01T02:21:27;1.73;;;1.63;;
11135;SDS011;5622;50.840;4.948;2022-10-01T02:23:59;1.50;;;1.40;;
11135;SDS011;5622;50.840;4.948;2022-10-01T02:26:29;2.87;;;1.33;;
11135;SDS011;5622;50.840;4.948;2022-10-01T02:29:00;2.50;;;1.60;;
11135;SDS011;5622;50.840;4.948;2022-10-01T02:31:33;3.03;;;1.63;;
11135;SDS011;5622;50.840;4.948;2022-10-01T02:34:01;3.97;;;1.53;;
11135;SDS011;5622;50.840;4.948;2022-10-01T02:36:31;2.23;;;1.40;;
11135;SDS011;5622;50.840;4.948;2022-10-01T02:39:01;1.27;;;1.27;;
11135;SDS011;5622;50.840;4.948;2022-10-01T02:41:30;5.90;;;1.80;;
11135;SDS011;5622;50.840;4.948;2022-10-01T02:44:02;1.80;;;1.60;;
11135;SDS011;5622;50.840;4.948;2022-10-01T02:46:36;1.57;;;1.47;;
11135;SDS011;5622;50.840;4.948;2022-10-01T02:49:06;1.50;;;1.40;;
11135;SDS011;5622;50.840;4.948;2022-10-01T02:51:36;1.97;;;1.73;;
11135;SDS011;5622;50.840;4.948;2022-10-01T02:54:12;2.07;;;1.77;;
11135;SDS011;5622;50.840;4.948;2022-10-01T02:56:44;3.60;;;1.60;;
11135;SDS011;5622;50.840;4.948;2022-10-01T02:59:29;4.50;;;1.50;;
11135;SDS011;5622;50.840;4.948;2022-10-01T03:01:58;2.43;;;1.30;;
11135;SDS011;5622;50.840;4.948;2022-10-01T03:04:25;1.40;;;1.30;;
11135;SDS011;5622;50.840;4.948;2022-10-01T03:06:52;1.83;;;1.30;;
11135;SDS011;5622;50.840;4.948;2022-10-01T03:09:19;1.77;;;1.27;;
11135;SDS011;5622;50.840;4.948;2022-10-01T03:11:46;5.10;;;1.20;;
11135;SDS011;5622;50.840;4.948;2022-10-01T03:14:13;1.60;;;1.20;;
11135;SDS011;5622;50.840;4.948;2022-10-01T03:16:40;2.93;;;1.17;;
11135;SDS011;5622;50.840;4.948;2022-10-01T03:19:09;1.03;;;1.03;;
11135;SDS011;5622;50.840;4.948;2022-10-01T03:21:36;2.93;;;1.17;;
11135;SDS011;5622;50.840;4.948;2022-10-01T03:24:03;1.00;;;1.00;;
11135;SDS011;5622;50.840;4.948;2022-10-01T03:26:30;1.47;;;1.00;;
11135;SDS011;5622;50.840;4.948;2022-10-01T03:28:57;1.00;;;1.00;;
11135;SDS011;5622;50.840;4.948;2022-10-01T03:31:24;4.77;;;1.20;;
11135;SDS011;5622;50.840;4.948;2022-10-01T03:33:51;1.43;;;1.20;;
11135;SDS011;5622;50.840;4.948;2022-10-01T03:36:20;2.47;;;1.20;;
11135;SDS011;5622;50.840;4.948;2022-10-01T03:38:47;1.00;;;1.00;;
11135;SDS011;5622;50.840;4.948;2022-10-01T03:41:14;0.90;;;0.90;;
11135;SDS011;5622;50.840;4.948;2022-10-01T03:43:41;1.20;;;1.10;;
11135;SDS011;5622;50.840;4.948;2022-10-01T03:46:08;1.10;;;1.10;;
11135;SDS011;5622;50.840;4.948;2022-10-01T03:48:35;1.43;;;1.10;;
11135;SDS011;5622;50.840;4.948;2022-10-01T03:51:03;1.30;;;1.20;;
11135;SDS011;5622;50.840;4.948;2022-10-01T03:53:31;1.47;;;1.13;;
11135;SDS011;5622;50.840;4.948;2022-10-01T03:55:59;1.30;;;1.20;;
11135;SDS011;5622;50.840;4.948;2022-10-01T03:58:26;1.90;;;1.07;;
11135;SDS011;5622;50.840;4.948;2022-10-01T04:00:53;1.43;;;1.10;;
11135;SDS011;5622;50.840;4.948;2022-10-01T04:03:21;0.90;;;0.90;;
11135;SDS011;5622;50.840;4.948;2022-10-01T04:05:49;0.93;;;0.93;;
11135;SDS011;5622;50.840;4.948;2022-10-01T04:08:16;1.30;;;1.00;;
11135;SDS011;5622;50.840;4.948;2022-10-01T04:10:44;0.90;;;0.90;;
11135;SDS011;5622;50.840;4.948;2022-10-01T04:13:12;1.50;;;0.90;;
11135;SDS011;5622;50.840;4.948;2022-10-01T04:15:39;1.10;;;1.00;;
11135;SDS011;5622;50.840;4.948;2022-10-01T04:18:06;1.17;;;1.03;;
11135;SDS011;5622;50.840;4.948;2022-10-01T04:20:35;1.10;;;1.10;;
11135;SDS011;5622;50.840;4.948;2022-10-01T04:23:03;1.20;;;1.10;;
11135;SDS011;5622;50.840;4.948;2022-10-01T04:25:30;1.07;;;0.97;;
11135;SDS011;5622;50.840;4.948;2022-10-01T04:27:59;1.03;;;1.03;;
11135;SDS011;5622;50.840;4.948;2022-10-01T04:30:29;1.90;;;1.03;;
11135;SDS011;5622;50.840;4.948;2022-10-01T04:32:58;1.60;;;1.10;;
11135;SDS011;5622;50.840;4.948;2022-10-01T04:38:30;1.60;;;1.50;;
11135;SDS011;5622;50.840;4.948;2022-10-01T04:40:57;1.13;;;1.03;;
11135;SDS011;5622;50.840;4.948;2022-10-01T04:43:26;1.33;;;1.23;;
11135;SDS011;5622;50.840;4.948;2022-10-01T04:45:53;1.43;;;1.33;;
11135;SDS011;5622;50.840;4.948;2022-10-01T04:48:20;2.47;;;1.23;;
11135;SDS011;5622;50.840;4.948;2022-10-01T04:50:48;1.10;;;1.07;;
11135;SDS011;5622;50.840;4.948;2022-10-01T04:53:15;1.00;;;0.90;;
11135;SDS011;5622;50.840;4.948;2022-10-01T04:55:42;1.27;;;1.17;;
11135;SDS011;5622;50.840;4.948;2022-10-01T04:58:10;1.00;;;1.00;;
11135;SDS011;5622;50.840;4.948;2022-10-01T05:00:39;1.00;;;1.00;;
11135;SDS011;5622;50.840;4.948;2022-10-01T05:03:06;2.30;;;1.30;;
11135;SDS011;5622;50.840;4.948;2022-10-01T05:05:33;1.20;;;1.10;;
11135;SDS011;5622;50.840;4.948;2022-10-01T05:08:01;1.47;;;1.30;;
11135;SDS011;5622;50.840;4.948;2022-10-01T05:10:29;2.13;;;1.17;;
11135;SDS011;5622;50.840;4.948;2022-10-01T05:12:56;1.30;;;1.20;;
11135;SDS011;5622;50.840;4.948;2022-10-01T05:15:26;1.20;;;1.10;;
11135;SDS011;5622;50.840;4.948;2022-10-01T05:17:55;1.33;;;1.23;;
11135;SDS011;5622;50.840;4.948;2022-10-01T05:20:23;4.03;;;1.30;;
11135;SDS011;5622;50.840;4.948;2022-10-01T05:22:51;1.83;;;1.20;;
11135;SDS011;5622;50.840;4.948;2022-10-01T05:25:20;1.47;;;1.10;;
11135;SDS011;5622;50.840;4.948;2022-10-01T05:27:47;3.27;;;1.30;;
11135;SDS011;5622;50.840;4.948;2022-10-01T05:30:15;2.07;;;1.63;;
11135;SDS011;5622;50.840;4.948;2022-10-01T05:32:56;2.13;;;1.53;;
11135;SDS011;5622;50.840;4.948;2022-10-01T05:35:24;2.23;;;1.43;;
11135;SDS011;5622;50.840;4.948;2022-10-01T05:37:53;2.00;;;1.83;;
11135;SDS011;5622;50.840;4.948;2022-10-01T05:40:24;3.03;;;1.57;;
11135;SDS011;5622;50.840;4.948;2022-10-01T05:42:53;2.37;;;1.50;;
11135;SDS011;5622;50.840;4.948;2022-10-01T05:45:21;2.73;;;2.10;;
11135;SDS011;5622;50.840;4.948;2022-10-01T05:47:56;5.70;;;2.10;;
11135;SDS011;5622;50.840;4.948;2022-10-01T05:50:24;4.23;;;1.90;;
11135;SDS011;5622;50.840;4.948;2022-10-01T05:52:51;3.60;;;1.90;;
11135;SDS011;5622;50.840;4.948;2022-10-01T05:55:18;1.87;;;1.67;;
11135;SDS011;5622;50.840;4.948;2022-10-01T05:57:53;3.27;;;1.87;;
11135;SDS011;5622;50.840;4.948;2022-10-01T06:00:21;2.63;;;1.70;;
11135;SDS011;5622;50.840;4.948;2022-10-01T06:02:49;2.93;;;2.00;;
11135;SDS011;5622;50.840;4.948;2022-10-01T06:05:18;3.80;;;1.80;;
11135;SDS011;5622;50.840;4.948;2022-10-01T06:07:46;5.80;;;1.90;;
11135;SDS011;5622;50.840;4.948;2022-10-01T06:10:13;2.07;;;1.70;;
11135;SDS011;5622;50.840;4.948;2022-10-01T06:12:40;3.13;;;2.10;;
11135;SDS011;5622;50.840;4.948;2022-10-01T06:15:08;3.03;;;1.93;;
11135;SDS011;5622;50.840;4.948;2022-10-01T06:17:36;3.33;;;2.20;;
11135;SDS011;5622;50.840;4.948;2022-10-01T06:20:08;2.83;;;2.37;;
11135;SDS011;5622;50.840;4.948;2022-10-01T06:22:38;2.63;;;2.10;;
11135;SDS011;5622;50.840;4.948;2022-10-01T06:25:07;3.63;;;2.00;;
11135;SDS011;5622;50.840;4.948;2022-10-01T06:27:36;2.00;;;1.67;;
11135;SDS011;5622;50.840;4.948;2022-10-01T06:30:03;2.23;;;1.73;;
11135;SDS011;5622;50.840;4.948;2022-10-01T06:32:31;2.60;;;2.10;;
11135;SDS011;5622;50.840;4.948;2022-10-01T06:34:58;2.87;;;2.27;;
11135;SDS011;5622;50.840;4.948;2022-10-01T06:37:25;4.07;;;2.33;;
11135;SDS011;5622;50.840;4.948;2022-10-01T06:39:55;6.10;;;2.50;;
11135;SDS011;5622;50.840;4.948;2022-10-01T06:42:22;2.40;;;1.90;;
11135;SDS011;5622;50.840;4.948;2022-10-01T06:44:49;3.37;;;2.40;;
11135;SDS011;5622;50.840;4.948;2022-10-01T06:47:16;4.77;;;2.80;;
11135;SDS011;5622;50.840;4.948;2022-10-01T06:49:43;3.60;;;2.97;;
11135;SDS011;5622;50.840;4.948;2022-10-01T06:52:10;2.77;;;2.50;;
11135;SDS011;5622;50.840;4.948;2022-10-01T06:55:05;4.27;;;2.93;;
11135;SDS011;5622;50.840;4.948;2022-10-01T06:57:33;3.93;;;3.13;;
11135;SDS011;5622;50.840;4.948;2022-10-01T07:00:00;3.00;;;2.70;;
11135;SDS011;5622;50.840;4.948;2022-10-01T07:02:27;4.40;;;3.20;;
11135;SDS011;5622;50.840;4.948;2022-10-01T07:04:54;8.77;;;3.27;;
11135;SDS011;5622;50.840;4.948;2022-10-01T07:07:24;3.57;;;3.20;;
11135;SDS011;5622;50.840;4.948;2022-10-01T07:09:53;5.13;;;3.67;;
11135;SDS011;5622;50.840;4.948;2022-10-01T07:12:22;7.47;;;3.53;;
11135;SDS011;5622;50.840;4.948;2022-10-01T07:14:49;6.30;;;3.50;;
11135;SDS011;5622;50.840;4.948;2022-10-01T07:17:16;6.00;;;3.50;;
11135;SDS011;5622;50.840;4.948;2022-10-01T07:19:43;8.03;;;4.83;;
11135;SDS011;5622;50.840;4.948;2022-10-01T07:22:11;6.40;;;3.70;;
11135;SDS011;5622;50.840;4.948;2022-10-01T07:24:38;4.30;;;3.43;;
11135;SDS011;5622;50.840;4.948;2022-10-01T07:27:06;3.73;;;3.13;;
11135;SDS011;5622;50.840;4.948;2022-10-01T07:29:34;4.27;;;3.30;;
11135;SDS011;5622;50.840;4.948;2022-10-01T07:32:01;5.77;;;3.67;;
11135;SDS011;5622;50.840;4.948;2022-10-01T07:34:33;6.67;;;3.87;;
11135;SDS011;5622;50.840;4.948;2022-10-01T07:37:01;5.77;;;3.87;;
11135;SDS011;5622;50.840;4.948;2022-10-01T07:39:28;4.17;;;3.43;;
11135;SDS011;5622;50.840;4.948;2022-10-01T07:41:55;8.03;;;4.53;;
11135;SDS011;5622;50.840;4.948;2022-10-01T07:44:23;9.90;;;4.90;;
11135;SDS011;5622;50.840;4.948;2022-10-01T07:46:52;6.67;;;4.63;;
11135;SDS011;5622;50.840;4.948;2022-10-01T07:49:19;11.80;;;6.10;;
11135;SDS011;5622;50.840;4.948;2022-10-01T07:51:46;15.30;;;6.67;;
11135;SDS011;5622;50.840;4.948;2022-10-01T07:54:13;9.93;;;5.87;;
11135;SDS011;5622;50.840;4.948;2022-10-01T07:56:41;10.03;;;6.57;;
11135;SDS011;5622;50.840;4.948;2022-10-01T07:59:08;9.90;;;6.27;;
11135;SDS011;5622;50.840;4.948;2022-10-01T08:01:35;11.30;;;6.00;;
11135;SDS011;5622;50.840;4.948;2022-10-01T08:04:04;15.50;;;6.17;;
11135;SDS011;5622;50.840;4.948;2022-10-01T08:06:45;13.30;;;6.13;;
11135;SDS011;5622;50.840;4.948;2022-10-01T08:09:13;13.23;;;6.97;;
11135;SDS011;5622;50.840;4.948;2022-10-01T08:11:40;10.13;;;6.40;;
11135;SDS011;5622;50.840;4.948;2022-10-01T08:14:07;16.80;;;7.47;;
11135;SDS011;5622;50.840;4.948;2022-10-01T08:16:34;15.57;;;7.73;;
11135;SDS011;5622;50.840;4.948;2022-10-01T08:19:05;20.60;;;7.30;;
11135;SDS011;5622;50.840;4.948;2022-10-01T08:21:32;16.30;;;7.77;;
11135;SDS011;5622;50.840;4.948;2022-10-01T08:24:00;18.40;;;7.97;;
11135;SDS011;5622;50.840;4.948;2022-10-01T08:26:27;14.53;;;7.50;;
11135;SDS011;5622;50.840;4.948;2022-10-01T08:28:55;19.70;;;8.50;;
11135;SDS011;5622;50.840;4.948;2022-10-01T08:31:22;21.10;;;8.73;;
11135;SDS011;5622;50.840;4.948;2022-10-01T08:33:50;16.17;;;8.00;;
11135;SDS011;5622;50.840;4.948;2022-10-01T08:36:19;15.90;;;8.27;;
11135;SDS011;5622;50.840;4.948;2022-10-01T08:38:47;15.20;;;8.10;;
11135;SDS011;5622;50.840;4.948;2022-10-01T08:41:21;16.57;;;8.00;;
11135;SDS011;5622;50.840;4.948;2022-10-01T08:43:54;15.40;;;8.00;;
11135;SDS011;5622;50.840;4.948;2022-10-01T08:46:23;19.80;;;7.80;;
11135;SDS011;5622;50.840;4.948;2022-10-01T08:48:54;13.70;;;8.47;;
11135;SDS011;5622;50.840;4.948;2022-10-01T08:51:31;16.63;;;8.60;;
11135;SDS011;5622;50.840;4.948;2022-10-01T08:54:09;20.23;;;8.40;;
11135;SDS011;5622;50.840;4.948;2022-10-01T08:56:46;14.37;;;7.37;;
11135;SDS011;5622;50.840;4.948;2022-10-01T08:59:16;17.87;;;7.53;;
11135;SDS011;5622;50.840;4.948;2022-10-01T09:01:53;19.23;;;7.63;;
11135;SDS011;5622;50.840;4.948;2022-10-01T09:04:20;16.87;;;7.20;;
11135;SDS011;5622;50.840;4.948;2022-10-01T09:06:50;15.43;;;7.17;;
11135;SDS011;5622;50.840;4.948;2022-10-01T09:09:35;23.00;;;7.47;;
11135;SDS011;5622;50.840;4.948;2022-10-01T09:12:16;16.00;;;6.30;;
11135;SDS011;5622;50.840;4.948;2022-10-01T09:14:54;21.60;;;7.20;;
11135;SDS011;5622;50.840;4.948;2022-10-01T09:17:38;19.60;;;7.93;;
11135;SDS011;5622;50.840;4.948;2022-10-01T09:20:20;18.30;;;6.87;;
11135;SDS011;5622;50.840;4.948;2022-10-01T09:22:56;17.77;;;6.23;;
11135;SDS011;5622;50.840;4.948;2022-10-01T09:25:31;18.00;;;6.47;;
11135;SDS011;5622;50.840;4.948;2022-10-01T09:28:06;15.83;;;5.80;;
11135;SDS011;5622;50.840;4.948;2022-10-01T09:30:39;15.33;;;6.63;;
11135;SDS011;5622;50.840;4.948;2022-10-01T09:33:14;23.17;;;5.93;;
11135;SDS011;5622;50.840;4.948;2022-10-01T09:35:45;20.10;;;5.77;;
11135;SDS011;5622;50.840;4.948;2022-10-01T09:38:18;18.60;;;5.70;;
11135;SDS011;5622;50.840;4.948;2022-10-01T09:40:51;17.10;;;5.90;;
11135;SDS011;5622;50.840;4.948;2022-10-01T09:43:19;17.37;;;5.40;;
11135;SDS011;5622;50.840;4.948;2022-10-01T09:45:47;18.77;;;6.13;;
11135;SDS011;5622;50.840;4.948;2022-10-01T09:48:17;19.90;;;6.70;;
11135;SDS011;5622;50.840;4.948;2022-10-01T09:50:52;14.77;;;4.87;;
11135;SDS011;5622;50.840;4.948;2022-10-01T09:53:26;28.90;;;5.83;;
11135;SDS011;5622;50.840;4.948;2022-10-01T09:56:00;16.33;;;4.93;;
11135;SDS011;5622;50.840;4.948;2022-10-01T09:58:33;11.47;;;4.60;;
11135;SDS011;5622;50.840;4.948;2022-10-01T10:01:04;12.00;;;4.37;;
11135;SDS011;5622;50.840;4.948;2022-10-01T10:03:51;15.60;;;4.80;;
11135;SDS011;5622;50.840;4.948;2022-10-01T10:06:20;17.33;;;5.30;;
11135;SDS011;5622;50.840;4.948;2022-10-01T10:08:52;12.73;;;4.63;;
11135;SDS011;5622;50.840;4.948;2022-10-01T10:11:21;14.30;;;4.57;;
11135;SDS011;5622;50.840;4.948;2022-10-01T10:13:50;14.20;;;4.67;;
11135;SDS011;5622;50.840;4.948;2022-10-01T10:16:21;12.37;;;5.10;;
11135;SDS011;5622;50.840;4.948;2022-10-01T10:18:51;14.57;;;5.50;;
11135;SDS011;5622;50.840;4.948;2022-10-01T10:21:20;16.43;;;4.27;;
11135;SDS011;5622;50.840;4.948;2022-10-01T10:23:50;11.57;;;4.30;;
11135;SDS011;5622;50.840;4.948;2022-10-01T10:26:21;14.60;;;4.00;;
11135;SDS011;5622;50.840;4.948;2022-10-01T10:28:56;15.33;;;4.50;;
11135;SDS011;5622;50.840;4.948;2022-10-01T10:31:24;13.57;;;3.87;;
11135;SDS011;5622;50.840;4.948;2022-10-01T10:33:52;9.13;;;3.87;;
11135;SDS011;5622;50.840;4.948;2022-10-01T10:36:25;10.73;;;3.23;;
11135;SDS011;5622;50.840;4.948;2022-10-01T10:38:55;12.07;;;3.50;;
11135;SDS011;5622;50.840;4.948;2022-10-01T10:41:24;11.17;;;3.40;;
11135;SDS011;5622;50.840;4.948;2022-10-01T10:43:54;11.57;;;3.73;;
11135;SDS011;5622;50.840;4.948;2022-10-01T10:46:25;10.40;;;3.80;;
11135;SDS011;5622;50.840;4.948;2022-10-01T10:49:00;11.27;;;3.83;;
11135;SDS011;5622;50.840;4.948;2022-10-01T10:51:43;10.77;;;3.47;;
11135;SDS011;5622;50.840;4.948;2022-10-01T10:57:03;11.20;;;3.00;;
11135;SDS011;5622;50.840;4.948;2022-10-01T10:59:53;11.03;;;3.73;;
11135;SDS011;5622;50.840;4.948;2022-10-01T11:02:21;10.30;;;3.50;;
11135;SDS011;5622;50.840;4.948;2022-10-01T11:04:49;7.27;;;3.00;;
11135;SDS011;5622;50.840;4.948;2022-10-01T11:07:18;13.47;;;4.40;;
11135;SDS011;5622;50.840;4.948;2022-10-01T11:09:59;9.90;;;3.07;;
11135;SDS011;5622;50.840;4.948;2022-10-01T11:12:42;8.90;;;3.70;;
11135;SDS011;5622;50.840;4.948;2022-10-01T11:18:28;10.03;;;3.50;;
11135;SDS011;5622;50.840;4.948;2022-10-01T11:21:14;12.90;;;4.10;;
11135;SDS011;5622;50.840;4.948;2022-10-01T11:24:01;17.90;;;4.97;;
11135;SDS011;5622;50.840;4.948;2022-10-01T11:26:47;13.23;;;4.43;;
11135;SDS011;5622;50.840;4.948;2022-10-01T11:29:27;8.43;;;4.63;;
11135;SDS011;5622;50.840;4.948;2022-10-01T11:32:04;10.37;;;3.93;;
11135;SDS011;5622;50.840;4.948;2022-10-01T11:35:01;9.47;;;4.60;;
11135;SDS011;5622;50.840;4.948;2022-10-01T11:37:52;8.67;;;3.77;;
11135;SDS011;5622;50.840;4.948;2022-10-01T11:40:26;12.13;;;5.47;;
11135;SDS011;5622;50.840;4.948;2022-10-01T11:43:03;12.03;;;5.30;;
11135;SDS011;5622;50.840;4.948;2022-10-01T11:45:39;10.33;;;3.77;;
11135;SDS011;5622;50.840;4.948;2022-10-01T11:48:10;8.93;;;3.33;;
11135;SDS011;5622;50.840;4.948;2022-10-01T11:50:43;13.10;;;3.33;;
11135;SDS011;5622;50.840;4.948;2022-10-01T11:53:14;7.73;;;2.53;;
11135;SDS011;5622;50.840;4.948;2022-10-01T11:55:47;10.63;;;3.33;;
11135;SDS011;5622;50.840;4.948;2022-10-01T11:58:40;10.67;;;3.30;;
11135;SDS011;5622;50.840;4.948;2022-10-01T12:01:25;6.70;;;2.40;;
11135;SDS011;5622;50.840;4.948;2022-10-01T12:04:02;10.17;;;2.83;;
11135;SDS011;5622;50.840;4.948;2022-10-01T12:06:34;6.30;;;2.37;;
11135;SDS011;5622;50.840;4.948;2022-10-01T12:09:06;7.77;;;2.73;;
11135;SDS011;5622;50.840;4.948;2022-10-01T12:11:41;10.20;;;2.97;;
11135;SDS011;5622;50.840;4.948;2022-10-01T12:14:16;7.40;;;2.40;;
11135;SDS011;5622;50.840;4.948;2022-10-01T12:16:47;11.27;;;3.13;;
11135;SDS011;5622;50.840;4.948;2022-10-01T12:19:18;8.03;;;2.47;;
11135;SDS011;5622;50.840;4.948;2022-10-01T12:21:50;12.23;;;2.77;;
11135;SDS011;5622;50.840;4.948;2022-10-01T12:24:23;5.20;;;2.53;;
11135;SDS011;5622;50.840;4.948;2022-10-01T12:26:57;11.10;;;2.70;;
11135;SDS011;5622;50.840;4.948;2022-10-01T12:29:33;8.40;;;2.30;;
11135;SDS011;5622;50.840;4.948;2022-10-01T12:32:10;6.90;;;2.30;;
11135;SDS011;5622;50.840;4.948;2022-10-01T12:34:48;9.53;;;2.50;;
11135;SDS011;5622;50.840;4.948;2022-10-01T12:37:27;9.90;;;2.70;;
11135;SDS011;5622;50.840;4.948;2022-10-01T12:40:08;9.87;;;2.20;;
11135;SDS011;5622;50.840;4.948;2022-10-01T12:42:52;4.73;;;2.10;;
11135;SDS011;5622;50.840;4.948;2022-10-01T12:45:37;11.40;;;2.13;;
11135;SDS011;5622;50.840;4.948;2022-10-01T12:48:11;12.80;;;2.03;;
11135;SDS011;5622;50.840;4.948;2022-10-01T12:50:47;9.33;;;2.07;;
11135;SDS011;5622;50.840;4.948;2022-10-01T12:53:23;8.73;;;2.20;;
11135;SDS011;5622;50.840;4.948;2022-10-01T12:56:00;9.60;;;2.43;;
11135;SDS011;5622;50.840;4.948;2022-10-01T12:58:37;8.50;;;3.37;;
11135;SDS011;5622;50.840;4.948;2022-10-01T13:01:38;11.13;;;2.77;;
11135;SDS011;5622;50.840;4.948;2022-10-01T13:07:13;10.50;;;3.80;;
11135;SDS011;5622;50.840;4.948;2022-10-01T13:09:56;14.33;;;2.93;;
11135;SDS011;5622;50.840;4.948;2022-10-01T13:12:40;13.37;;;3.30;;
11135;SDS011;5622;50.840;4.948;2022-10-01T13:15:18;7.90;;;2.60;;
11135;SDS011;5622;50.840;4.948;2022-10-01T13:17:51;12.83;;;3.40;;
11135;SDS011;5622;50.840;4.948;2022-10-01T13:20:26;6.97;;;2.63;;
11135;SDS011;5622;50.840;4.948;2022-10-01T13:23:00;17.00;;;2.67;;
11135;SDS011;5622;50.840;4.948;2022-10-01T13:25:35;10.33;;;2.83;;
11135;SDS011;5622;50.840;4.948;2022-10-01T13:28:09;9.60;;;2.83;;
11135;SDS011;5622;50.840;4.948;2022-10-01T13:30:44;8.53;;;2.60;;
11135;SDS011;5622;50.840;4.948;2022-10-01T13:33:25;9.67;;;2.83;;
11135;SDS011;5622;50.840;4.948;2022-10-01T13:35:54;17.50;;;3.23;;
11135;SDS011;5622;50.840;4.948;2022-10-01T13:38:27;9.40;;;3.10;;
11135;SDS011;5622;50.840;4.948;2022-10-01T13:40:57;11.80;;;3.00;;
11135;SDS011;5622;50.840;4.948;2022-10-01T13:43:26;13.67;;;3.77;;
11135;SDS011;5622;50.840;4.948;2022-10-01T13:45:55;12.20;;;3.40;;
11135;SDS011;5622;50.840;4.948;2022-10-01T13:48:32;9.47;;;2.97;;
11135;SDS011;5622;50.840;4.948;2022-10-01T13:51:02;12.47;;;2.50;;
11135;SDS011;5622;50.840;4.948;2022-10-01T13:53:34;11.37;;;2.30;;
11135;SDS011;5622;50.840;4.948;2022-10-01T13:56:04;9.83;;;2.47;;
11135;SDS011;5622;50.840;4.948;2022-10-01T13:58:33;8.40;;;2.40;;
11135;SDS011;5622;50.840;4.948;2022-10-01T14:01:03;10.70;;;2.43;;
11135;SDS011;5622;50.840;4.948;2022-10-01T14:03:41;8.13;;;2.47;;
11135;SDS011;5622;50.840;4.948;2022-10-01T14:06:14;6.73;;;2.47;;
11135;SDS011;5622;50.840;4.948;2022-10-01T14:08:46;10.77;;;3.13;;
11135;SDS011;5622;50.840;4.948;2022-10-01T14:11:18;8.23;;;2.67;;
11135;SDS011;5622;50.840;4.948;2022-10-01T14:14:10;8.17;;;2.80;;
11135;SDS011;5622;50.840;4.948;2022-10-01T14:16:56;9.37;;;2.93;;
11135;SDS011;5622;50.840;4.948;2022-10-01T14:19:27;9.00;;;2.57;;
11135;SDS011;5622;50.840;4.948;2022-10-01T14:22:01;9.67;;;3.07;;
11135;SDS011;5622;50.840;4.948;2022-10-01T14:24:40;10.17;;;2.80;;
11135;SDS011;5622;50.840;4.948;2022-10-01T14:27:15;10.00;;;2.90;;
11135;SDS011;5622;50.840;4.948;2022-10-01T14:29:50;7.13;;;2.60;;
11135;SDS011;5622;50.840;4.948;2022-10-01T14:32:32;14.10;;;3.20;;
11135;SDS011;5622;50.840;4.948;2022-10-01T14:35:16;8.50;;;2.60;;
11135;SDS011;5622;50.840;4.948;2022-10-01T14:37:50;8.80;;;2.40;;
11135;SDS011;5622;50.840;4.948;2022-10-01T14:40:24;7.10;;;2.80;;
11135;SDS011;5622;50.840;4.948;2022-10-01T14:43:00;6.57;;;2.77;;
11135;SDS011;5622;50.840;4.948;2022-10-01T14:45:28;7.70;;;2.00;;
11135;SDS011;5622;50.840;4.948;2022-10-01T14:47:58;9.40;;;2.57;;
11135;SDS011;5622;50.840;4.948;2022-10-01T14:50:28;10.73;;;2.40;;
11135;SDS011;5622;50.840;4.948;2022-10-01T14:52:58;13.07;;;3.27;;
11135;SDS011;5622;50.840;4.948;2022-10-01T14:55:25;7.07;;;2.53;;
11135;SDS011;5622;50.840;4.948;2022-10-01T14:57:55;10.57;;;2.70;;
11135;SDS011;5622;50.840;4.948;2022-10-01T15:00:24;7.80;;;2.10;;
11135;SDS011;5622;50.840;4.948;2022-10-01T15:03:02;5.90;;;2.00;;
11135;SDS011;5622;50.840;4.948;2022-10-01T15:05:38;6.73;;;2.10;;
11135;SDS011;5622;50.840;4.948;2022-10-01T15:08:09;7.07;;;2.03;;
11135;SDS011;5622;50.840;4.948;2022-10-01T15:10:39;7.83;;;2.10;;
11135;SDS011;5622;50.840;4.948;2022-10-01T15:13:15;6.57;;;2.23;;
11135;SDS011;5622;50.840;4.948;2022-10-01T15:15:44;6.17;;;2.00;;
11135;SDS011;5622;50.840;4.948;2022-10-01T15:18:11;6.97;;;2.43;;
11135;SDS011;5622;50.840;4.948;2022-10-01T15:20:49;6.80;;;1.93;;
11135;SDS011;5622;50.840;4.948;2022-10-01T15:23:20;7.70;;;2.27;;
11135;SDS011;5622;50.840;4.948;2022-10-01T15:25:48;7.87;;;2.27;;
11135;SDS011;5622;50.840;4.948;2022-10-01T15:28:21;8.27;;;2.80;;
11135;SDS011;5622;50.840;4.948;2022-10-01T15:30:56;10.70;;;2.60;;
11135;SDS011;5622;50.840;4.948;2022-10-01T15:33:25;7.93;;;2.50;;
11135;SDS011;5622;50.840;4.948;2022-10-01T15:35:56;7.10;;;2.53;;
11135;SDS011;5622;50.840;4.948;2022-10-01T15:38:24;5.73;;;2.30;;